createdAt,value
2018-12-11T00:01:25.291Z,5.70
2018-12-11T00:03:59.158Z,5.70
2018-12-11T00:06:33.886Z,5.70
2018-12-11T00:09:09.209Z,5.60
2018-12-11T00:11:40.971Z,5.60
2018-12-11T00:14:15.838Z,5.60
2018-12-11T00:16:50.248Z,5.60
2018-12-11T00:19:20.883Z,5.60
2018-12-11T00:21:55.155Z,5.50
2018-12-11T00:24:24.970Z,5.50
2018-12-11T00:26:59.759Z,5.60
2018-12-11T00:29:34.116Z,5.60
2018-12-11T00:32:05.612Z,5.60
2018-12-11T00:34:39.491Z,5.50
2018-12-11T00:37:13.849Z,5.50
2018-12-11T00:39:48.052Z,5.50
2018-12-11T00:42:19.828Z,5.40
2018-12-11T00:44:54.606Z,5.30
2018-12-11T00:47:26.734Z,5.20
2018-12-11T00:50:00.901Z,5.30
2018-12-11T00:52:32.734Z,5.20
2018-12-11T00:55:07.282Z,5.20
2018-12-11T00:57:39.350Z,5.20
2018-12-11T01:00:11.654Z,5.10
2018-12-11T01:02:43.846Z,5.20
2018-12-11T01:05:14.144Z,5.20
2018-12-11T01:07:43.575Z,5.20
2018-12-11T01:10:19.456Z,5.10
2018-12-11T01:12:51.258Z,5.10
2018-12-11T01:15:25.521Z,5.00
2018-12-11T01:17:59.891Z,5.00
2018-12-11T01:20:32.439Z,5.10
2018-12-11T01:23:02.395Z,5.10
2018-12-11T01:25:31.804Z,5.10
2018-12-11T01:28:06.536Z,5.20
2018-12-11T01:30:40.423Z,5.20
2018-12-11T01:33:14.821Z,5.20
2018-12-11T01:36:01.663Z,5.30
2018-12-11T01:38:36.711Z,5.30
2018-12-11T01:41:12.409Z,5.40
2018-12-11T01:43:46.895Z,5.40
2018-12-11T01:46:23.605Z,5.40
2018-12-11T01:48:55.689Z,5.30
2018-12-11T01:51:27.940Z,5.20
2018-12-11T01:53:58.738Z,5.20
2018-12-11T01:56:33.874Z,5.20
2018-12-11T01:59:07.745Z,5.20
2018-12-11T02:01:42.045Z,5.10
2018-12-11T02:04:16.008Z,5.10
2018-12-11T02:06:45.704Z,5.00
2018-12-11T02:09:15.412Z,5.00
2018-12-11T02:11:45.474Z,5.00
2018-12-11T02:14:19.999Z,5.00
2018-12-11T02:16:54.332Z,5.00
2018-12-11T02:19:28.247Z,5.00
2018-12-11T02:21:59.733Z,5.00
2018-12-11T02:24:30.019Z,5.00
2018-12-11T02:27:11.241Z,5.00
2018-12-11T02:29:41.272Z,5.10
2018-12-11T02:32:13.560Z,5.00
2018-12-11T02:34:48.244Z,5.00
2018-12-11T02:37:22.711Z,5.00
2018-12-11T02:39:57.399Z,5.00
2018-12-11T02:42:28.850Z,5.00
2018-12-11T02:44:59.168Z,5.00
2018-12-11T02:47:34.135Z,5.00
2018-12-11T02:50:04.652Z,5.00
2018-12-11T02:52:36.231Z,5.00
2018-12-11T02:55:07.762Z,4.90
2018-12-11T02:57:48.656Z,4.90
2018-12-11T03:00:23.415Z,4.80
2018-12-11T03:02:57.476Z,4.80
2018-12-11T03:05:35.900Z,4.80
2018-12-11T03:08:10.165Z,4.80
2018-12-11T03:10:41.870Z,4.80
2018-12-11T03:13:16.760Z,4.80
2018-12-11T03:15:52.101Z,4.80
2018-12-11T03:18:26.650Z,4.80
2018-12-11T03:21:01.043Z,4.90
2018-12-11T03:23:35.453Z,4.90
2018-12-11T03:26:09.621Z,5.00
2018-12-11T03:28:43.720Z,5.10
2018-12-11T03:31:17.602Z,5.00
2018-12-11T03:33:51.733Z,4.90
2018-12-11T03:36:23.599Z,5.10
2018-12-11T03:38:57.499Z,5.10
2018-12-11T03:41:27.145Z,5.00
2018-12-11T03:44:01.905Z,5.00
2018-12-11T03:46:35.945Z,5.10
2018-12-11T03:49:07.834Z,4.90
2018-12-11T03:51:42.308Z,4.80
2018-12-11T03:54:14.100Z,4.90
2018-12-11T03:56:48.078Z,5.00
2018-12-11T03:59:22.219Z,5.10
2018-12-11T04:01:56.367Z,5.10
2018-12-11T04:04:30.860Z,5.10
2018-12-11T04:07:02.659Z,5.20
2018-12-11T04:09:53.687Z,5.10
2018-12-11T04:12:28.359Z,5.00
2018-12-11T04:15:02.697Z,5.00
2018-12-11T04:17:35.030Z,5.00
2018-12-11T04:20:09.709Z,5.00
2018-12-11T04:22:43.738Z,4.90
2018-12-11T04:25:13.529Z,4.90
2018-12-11T04:27:47.859Z,4.90
2018-12-11T04:30:22.160Z,4.90
2018-12-11T04:32:51.794Z,4.90
2018-12-11T04:35:25.671Z,4.90
2018-12-11T04:37:59.930Z,4.80
2018-12-11T04:40:34.028Z,4.90
2018-12-11T04:43:03.791Z,4.90
2018-12-11T04:45:35.183Z,4.90
2018-12-11T04:48:09.891Z,4.90
2018-12-11T04:50:43.944Z,4.90
2018-12-11T04:53:23.137Z,4.90
2018-12-11T04:55:57.751Z,4.90
2018-12-11T04:58:31.769Z,4.90
2018-12-11T05:01:03.315Z,4.80
2018-12-11T05:03:34.630Z,4.80
2018-12-11T05:06:08.386Z,4.80
2018-12-11T05:08:42.695Z,4.90
2018-12-11T05:11:14.630Z,4.90
2018-12-11T05:13:44.634Z,4.90
2018-12-11T05:16:14.907Z,4.80
2018-12-11T05:18:49.577Z,4.60
2018-12-11T05:21:21.532Z,4.60
2018-12-11T05:23:55.310Z,4.70
2018-12-11T05:26:29.451Z,4.80
2018-12-11T05:28:59.059Z,4.60
2018-12-11T05:31:38.857Z,4.70
2018-12-11T05:34:13.022Z,4.50
2018-12-11T05:36:47.067Z,4.50
2018-12-11T05:39:21.628Z,4.40
2018-12-11T05:41:57.430Z,4.40
2018-12-11T05:44:32.600Z,4.40
2018-12-11T05:47:07.085Z,4.40
2018-12-11T05:49:41.475Z,4.30
2018-12-11T05:52:12.995Z,4.30
2018-12-11T05:54:46.855Z,4.30
2018-12-11T05:57:18.407Z,4.40
2018-12-11T05:59:53.027Z,4.40
2018-12-11T06:02:27.184Z,4.40
2018-12-11T06:05:01.539Z,4.40
2018-12-11T06:07:32.517Z,4.40
2018-12-11T06:10:07.779Z,4.30
2018-12-11T06:12:42.464Z,4.50
2018-12-11T06:27:27.887Z,4.80
2018-12-11T06:29:57.327Z,4.80
2018-12-11T06:32:33.934Z,4.50
2018-12-11T06:35:13.731Z,4.60
2018-12-11T06:37:58.819Z,4.70
2018-12-11T06:40:43.347Z,4.70
2018-12-11T06:43:17.823Z,4.60
2018-12-11T06:46:00.213Z,4.70
2018-12-11T06:54:36.604Z,4.20
2018-12-11T06:57:11.720Z,4.30
2018-12-11T06:59:45.674Z,4.20
2018-12-11T07:05:19.160Z,4.10
2018-12-11T07:07:53.603Z,4.30
2018-12-11T08:38:42.762Z,4.60
2018-12-11T08:41:14.686Z,4.70
2018-12-11T08:43:49.110Z,4.50
2018-12-11T08:46:23.389Z,4.50
2018-12-11T08:48:55.519Z,4.70
2018-12-11T08:51:27.631Z,4.70
2018-12-11T08:54:02.571Z,4.90
2018-12-11T08:56:36.842Z,5.00
2018-12-11T08:59:10.840Z,5.10
2018-12-11T09:01:42.627Z,5.10
2018-12-11T09:04:14.727Z,5.00
2018-12-11T09:06:50.044Z,5.10
2018-12-11T09:09:24.675Z,5.10
2018-12-11T09:11:59.008Z,5.20
2018-12-11T09:14:30.718Z,5.20
2018-12-11T09:17:10.452Z,5.20
2018-12-11T09:19:44.513Z,5.10
2018-12-11T09:22:16.459Z,5.10
2018-12-11T09:24:50.880Z,5.20
2018-12-11T09:27:25.029Z,5.20
2018-12-11T09:30:00.163Z,5.20
2018-12-11T09:32:34.806Z,5.20
2018-12-11T09:35:05.027Z,5.10
2018-12-11T09:37:34.559Z,5.20
2018-12-11T09:40:06.351Z,5.20
2018-12-11T09:42:38.363Z,5.10
2018-12-11T09:45:13.130Z,5.20
2018-12-11T09:47:47.859Z,5.20
2018-12-11T09:50:22.561Z,5.30
2018-12-11T09:52:54.815Z,5.30
2018-12-11T09:55:29.417Z,5.40
2018-12-11T09:58:03.812Z,5.20
2018-12-11T10:00:38.012Z,5.10
2018-12-11T10:03:07.723Z,5.10
2018-12-11T10:05:37.900Z,5.20
2018-12-11T10:08:07.438Z,5.30
2018-12-11T10:10:41.777Z,5.30
2018-12-11T10:13:22.774Z,5.40
2018-12-11T10:16:11.249Z,5.40
2018-12-11T10:18:43.081Z,5.40
2018-12-11T10:21:17.746Z,5.50
2018-12-11T10:23:51.773Z,5.60
2018-12-11T10:26:26.007Z,5.70
2018-12-11T10:29:00.048Z,5.70
2018-12-11T10:31:34.219Z,5.70
2018-12-11T10:34:08.507Z,5.70
2018-12-11T10:36:40.643Z,5.60
2018-12-11T10:39:15.424Z,5.60
2018-12-11T10:41:49.374Z,5.70
2018-12-11T10:44:21.331Z,5.70
2018-12-11T10:46:55.869Z,5.90
2018-12-11T10:49:30.084Z,6.00
2018-12-11T10:52:04.216Z,6.00
2018-12-11T10:54:38.533Z,6.20
2018-12-11T10:57:19.081Z,6.20
2018-12-11T10:59:52.949Z,6.40
2018-12-11T11:02:31.212Z,6.50
2018-12-11T11:05:05.372Z,6.60
2018-12-11T11:07:39.407Z,6.50
2018-12-11T11:10:14.251Z,6.50
2018-12-11T11:12:46.703Z,6.50
2018-12-11T11:15:21.766Z,6.40
2018-12-11T11:17:56.465Z,6.30
2018-12-11T11:20:31.244Z,6.30
2018-12-11T11:23:08.951Z,6.30
2018-12-11T11:25:43.358Z,6.30
2018-12-11T11:28:17.513Z,6.20
2018-12-11T11:30:57.897Z,6.00
2018-12-11T11:33:32.604Z,6.00
2018-12-11T11:36:07.615Z,6.10
2018-12-11T11:38:41.835Z,6.10
2018-12-11T11:41:13.591Z,6.10
2018-12-11T11:43:43.759Z,6.20
2018-12-11T11:46:13.993Z,6.30
2018-12-11T11:48:43.500Z,6.30
2018-12-11T11:51:16.031Z,6.20
2018-12-11T11:53:50.545Z,6.00
2018-12-11T11:56:24.992Z,6.00
2018-12-11T11:58:59.038Z,6.00
2018-12-11T12:01:30.527Z,6.10
2018-12-11T12:04:05.578Z,6.20
2018-12-11T12:06:39.695Z,6.50
2018-12-11T12:09:14.196Z,6.70
2018-12-11T12:11:48.188Z,7.10
2018-12-11T12:14:23.579Z,7.50
2018-12-11T12:16:57.639Z,7.40
2018-12-11T12:19:31.849Z,7.20
2018-12-11T12:22:03.683Z,7.00
2018-12-11T12:24:38.054Z,7.00
2018-12-11T12:27:12.154Z,6.80
2018-12-11T12:29:44.102Z,6.70
2018-12-11T12:32:16.336Z,6.50
2018-12-11T12:34:50.923Z,6.50
2018-12-11T12:37:24.807Z,6.30
2018-12-11T12:39:58.839Z,6.30
2018-12-11T12:42:30.833Z,6.10
2018-12-11T12:45:05.770Z,6.00
2018-12-11T12:47:39.748Z,6.00
2018-12-11T12:50:26.287Z,5.80
2018-12-11T12:53:00.736Z,5.90
2018-12-11T12:58:27.755Z,6.10
2018-12-11T13:00:59.555Z,6.30
2018-12-11T13:03:34.346Z,6.40
2018-12-11T13:06:02.690Z,6.60
2018-12-11T13:08:49.107Z,7.00
2018-12-11T13:11:21.302Z,7.10
2018-12-11T13:13:51.606Z,7.30
2018-12-11T13:16:31.193Z,7.20
2018-12-11T13:19:17.761Z,7.20
2018-12-11T13:21:52.555Z,6.90
2018-12-11T13:24:26.649Z,6.90
2018-12-11T13:27:00.960Z,6.80
2018-12-11T13:32:28.828Z,6.70
2018-12-11T13:35:02.715Z,6.70
2018-12-11T13:40:25.367Z,6.60
2018-12-11T13:43:00.114Z,6.60
2018-12-11T13:45:34.116Z,6.60
2018-12-11T13:48:08.079Z,6.50
2018-12-11T13:50:40.213Z,6.40
2018-12-11T13:53:14.856Z,6.50
2018-12-11T13:55:49.100Z,6.40
2018-12-11T13:58:18.925Z,6.40
2018-12-11T14:00:51.207Z,6.40
2018-12-11T14:03:24.949Z,6.30
2018-12-11T14:05:59.127Z,6.40
2018-12-11T14:11:25.960Z,6.30
2018-12-11T14:14:00.320Z,6.30
2018-12-11T14:16:34.593Z,6.40
2018-12-11T14:19:03.927Z,6.40
2018-12-11T14:21:36.156Z,6.40
2018-12-11T14:24:10.024Z,6.30
2018-12-11T14:26:44.597Z,6.40
2018-12-11T14:29:18.855Z,6.50
2018-12-11T14:31:50.262Z,6.60
2018-12-11T14:34:24.811Z,6.60
2018-12-11T14:36:59.625Z,6.50
2018-12-11T14:39:34.269Z,6.30
2018-12-11T14:42:05.950Z,6.40
2018-12-11T14:44:40.998Z,6.50
2018-12-11T14:47:15.230Z,6.50
2018-12-11T14:49:50.523Z,6.60
2018-12-11T14:52:25.117Z,6.80
2018-12-11T14:54:59.684Z,6.70
2018-12-11T14:57:34.366Z,6.70
2018-12-11T15:00:09.781Z,6.70
2018-12-11T15:02:41.977Z,6.60
2018-12-11T15:05:16.900Z,6.60
2018-12-11T15:07:48.735Z,6.60
2018-12-11T15:10:25.973Z,6.60
2018-12-11T15:13:00.901Z,6.70
2018-12-11T15:15:33.095Z,6.60
2018-12-11T15:18:07.875Z,6.60
2018-12-11T15:20:39.390Z,6.60
2018-12-11T15:23:14.281Z,6.50
2018-12-11T15:25:49.029Z,6.40
2018-12-11T15:28:30.517Z,6.50
2018-12-11T15:31:09.362Z,6.40
2018-12-11T15:33:39.368Z,6.40
2018-12-11T15:36:14.041Z,6.30
2018-12-11T15:38:48.067Z,6.30
2018-12-11T15:41:19.821Z,6.20
2018-12-11T15:46:39.188Z,6.30
2018-12-11T15:49:13.702Z,6.20
2018-12-11T15:51:46.273Z,6.00
2018-12-11T15:54:21.471Z,6.00
2018-12-11T15:56:56.562Z,6.00
2018-12-11T15:59:31.323Z,5.90
2018-12-11T16:02:02.982Z,5.90
2018-12-11T16:04:38.390Z,5.90
2018-12-11T16:07:14.084Z,5.90
2018-12-11T16:09:48.767Z,5.90
2018-12-11T16:12:22.697Z,5.90
2018-12-11T16:14:57.227Z,5.80
2018-12-11T16:17:29.646Z,5.80
2018-12-11T16:20:04.950Z,5.80
2018-12-11T16:22:39.483Z,5.80
2018-12-11T16:25:13.682Z,5.70
2018-12-11T16:27:47.626Z,5.70
2018-12-11T16:30:21.631Z,5.70
2018-12-11T16:32:57.599Z,5.60
2018-12-11T16:35:34.282Z,5.70
2018-12-11T16:38:08.487Z,5.80
2018-12-11T16:40:41.092Z,5.70
2018-12-11T16:43:19.513Z,5.80
2018-12-11T16:45:49.440Z,5.80
2018-12-11T16:48:24.831Z,5.70
2018-12-11T16:50:57.380Z,5.50
2018-12-11T16:53:27.707Z,4.90
2018-12-11T16:55:58.436Z,5.00
2018-12-11T16:58:30.114Z,5.10
2018-12-11T17:01:13.537Z,5.00
2018-12-11T17:03:48.101Z,4.90
2018-12-11T17:06:22.785Z,4.90
2018-12-11T17:08:57.505Z,4.80
2018-12-11T17:11:31.416Z,4.60
2018-12-11T17:14:03.654Z,4.70
2018-12-11T17:16:38.053Z,4.70
2018-12-11T17:19:12.673Z,4.60
2018-12-11T17:21:47.143Z,4.60
2018-12-11T17:24:18.509Z,4.60
2018-12-11T17:26:48.817Z,4.50
2018-12-11T17:32:13.699Z,4.60
2018-12-11T17:34:47.711Z,4.40
2018-12-11T17:37:22.544Z,4.30
2018-12-11T17:39:52.762Z,4.20
2018-12-11T17:42:24.813Z,4.30
2018-12-11T17:44:59.575Z,4.40
2018-12-11T17:47:33.494Z,4.30
2018-12-11T17:50:08.365Z,4.40
2018-12-11T17:52:43.341Z,4.50
2018-12-11T17:55:18.489Z,4.40
2018-12-11T17:57:54.101Z,4.20
2018-12-11T18:00:28.331Z,4.20
2018-12-11T18:03:02.290Z,4.20
2018-12-11T18:05:36.512Z,4.10
2018-12-11T18:08:10.769Z,4.00
2018-12-11T18:10:42.431Z,4.10
2018-12-11T18:13:16.786Z,3.70
2018-12-11T18:15:51.861Z,3.90
2018-12-11T18:18:26.151Z,3.90
2018-12-11T18:21:00.263Z,3.90
2018-12-11T18:23:32.164Z,3.90
2018-12-11T18:26:02.441Z,4.20
2018-12-11T18:28:36.370Z,4.00
2018-12-11T18:31:07.938Z,4.10
2018-12-11T18:33:41.770Z,4.30
2018-12-11T18:36:15.883Z,4.30
2018-12-11T18:38:46.351Z,4.40
2018-12-11T18:41:18.645Z,4.30
2018-12-11T18:43:50.666Z,4.40
2018-12-11T18:46:24.477Z,4.30
2018-12-11T18:48:56.601Z,4.10
2018-12-11T18:57:44.672Z,4.20
2018-12-11T19:00:18.620Z,4.30
2018-12-11T19:02:52.670Z,4.30
2018-12-11T19:05:27.093Z,4.30
2018-12-11T19:08:00.987Z,4.30
2018-12-11T19:10:30.913Z,4.40
2018-12-11T19:13:11.493Z,4.50
2018-12-11T19:15:50.569Z,4.40
2018-12-11T19:18:25.787Z,4.40
2018-12-11T19:21:10.340Z,4.40
2018-12-11T19:24:02.064Z,4.50
2018-12-11T19:26:36.600Z,4.40
2018-12-11T19:29:06.321Z,4.50
2018-12-11T19:31:39.918Z,4.50
2018-12-11T19:34:11.748Z,4.50
2018-12-11T19:36:50.273Z,4.40
2018-12-11T19:39:41.488Z,4.20
2018-12-11T19:42:22.559Z,4.30
2018-12-11T19:47:53.782Z,4.20
2018-12-11T19:50:22.136Z,4.10
2018-12-11T19:52:53.845Z,4.10
2018-12-11T19:55:22.265Z,4.00
2018-12-11T20:00:50.237Z,3.60
2018-12-11T20:03:18.724Z,3.60
2018-12-11T20:05:47.063Z,3.80
2018-12-11T20:08:16.043Z,3.90
2018-12-11T20:10:46.358Z,4.00
2018-12-11T20:13:14.806Z,4.10
2018-12-11T20:15:43.138Z,4.20
2018-12-11T20:18:12.982Z,4.20
2018-12-11T20:20:41.526Z,4.20
2018-12-11T20:23:09.980Z,4.20
2018-12-11T20:25:41.277Z,4.30
2018-12-11T20:28:09.903Z,4.30
2018-12-11T20:30:38.289Z,4.20
2018-12-11T20:33:06.845Z,4.20
2018-12-11T20:35:47.801Z,4.30
2018-12-11T20:38:19.653Z,4.20
2018-12-11T20:40:48.044Z,4.30
2018-12-11T20:43:16.760Z,4.30
2018-12-11T20:48:50.416Z,4.10
2018-12-11T20:51:18.753Z,4.30
2018-12-11T20:53:47.816Z,4.20
2018-12-11T20:56:16.228Z,4.20
2018-12-11T20:58:44.641Z,4.20
2018-12-11T21:01:12.979Z,4.10
2018-12-11T21:06:41.824Z,3.90
2018-12-11T21:09:14.798Z,3.90
2018-12-11T21:11:43.171Z,4.00
2018-12-11T21:14:12.882Z,3.90
2018-12-11T21:16:49.074Z,4.00
2018-12-11T21:19:17.851Z,4.00
2018-12-11T21:21:46.408Z,4.00
2018-12-11T21:27:14.092Z,3.70
2018-12-11T21:29:48.141Z,3.90
2018-12-11T21:32:17.229Z,3.80
2018-12-11T21:34:45.692Z,3.90
2018-12-11T21:37:14.079Z,4.00
2018-12-11T21:39:42.544Z,3.90
2018-12-11T21:42:14.273Z,3.70
2018-12-11T21:44:42.677Z,4.00
2018-12-11T21:47:11.028Z,3.90
2018-12-11T21:49:39.388Z,3.90
2018-12-11T21:52:07.724Z,3.90
2018-12-11T21:54:36.098Z,3.90
2018-12-11T21:57:04.447Z,3.90
2018-12-11T21:59:32.842Z,3.70
2018-12-11T22:02:01.245Z,3.80
2018-12-11T22:04:29.592Z,3.90
2018-12-11T22:06:57.912Z,3.90
2018-12-11T22:09:26.336Z,3.90
2018-12-11T22:11:54.662Z,3.80
2018-12-11T22:14:23.019Z,3.80
2018-12-11T22:16:51.383Z,3.90
2018-12-11T22:19:19.738Z,3.90
2018-12-11T22:21:48.041Z,3.90
2018-12-11T22:24:16.357Z,3.80
2018-12-11T22:26:44.683Z,4.00
2018-12-11T22:29:13.017Z,4.00
2018-12-11T22:31:41.353Z,3.70
2018-12-11T22:34:09.685Z,3.40
2018-12-11T22:36:38.122Z,3.40
2018-12-11T22:39:07.920Z,3.50
2018-12-11T22:41:36.469Z,3.40
2018-12-11T22:44:04.848Z,3.60
2018-12-11T22:46:33.184Z,3.80
2018-12-11T22:49:01.490Z,3.80
2018-12-11T22:51:29.992Z,3.70
2018-12-11T22:53:58.311Z,3.90
2018-12-11T22:56:26.630Z,3.70
2018-12-11T22:58:54.956Z,3.50
2018-12-11T23:01:23.489Z,3.70
2018-12-11T23:03:51.818Z,3.60
2018-12-11T23:06:20.157Z,3.80
2018-12-11T23:08:48.469Z,3.80
2018-12-11T23:11:16.937Z,3.90
2018-12-11T23:13:45.261Z,3.80
2018-12-11T23:16:13.578Z,3.70
2018-12-11T23:18:41.896Z,3.70
2018-12-11T23:21:10.237Z,3.80
2018-12-11T23:23:38.557Z,3.80
2018-12-11T23:26:06.973Z,3.80
2018-12-11T23:28:35.293Z,3.90
2018-12-11T23:31:03.608Z,3.90
2018-12-11T23:33:31.909Z,3.50
2018-12-11T23:36:00.244Z,3.60
2018-12-11T23:38:28.582Z,3.50
2018-12-11T23:40:56.907Z,3.20
2018-12-11T23:43:25.225Z,3.40
2018-12-11T23:45:53.599Z,3.50
2018-12-11T23:48:21.900Z,3.50
2018-12-11T23:50:50.263Z,3.70
2018-12-11T23:53:18.626Z,3.70
2018-12-11T23:55:46.941Z,3.60
2018-12-11T23:58:15.288Z,3.60
